createdAt,value
2023-04-24T00:00:40.219Z,2.38
2023-04-24T00:03:26.744Z,1.67
2023-04-24T00:06:12.186Z,2.83
2023-04-24T00:08:57.371Z,5.68
2023-04-24T00:11:42.308Z,1.20
2023-04-24T00:14:27.318Z,5.72
2023-04-24T00:17:12.241Z,3.10
2023-04-24T00:19:58.141Z,2.78
2023-04-24T00:22:43.430Z,4.43
2023-04-24T00:25:28.316Z,3.70
2023-04-24T00:28:13.178Z,1.50
2023-04-24T00:30:58.264Z,2.00
2023-04-24T00:33:43.625Z,2.00
2023-04-24T00:36:29.400Z,4.38
2023-04-24T00:39:14.482Z,1.98
2023-04-24T00:41:59.621Z,4.60
2023-04-24T00:44:45.351Z,1.48
2023-04-24T00:47:30.764Z,3.53
2023-04-24T00:50:16.978Z,2.80
2023-04-24T00:53:02.104Z,2.70
2023-04-24T00:55:47.481Z,3.90
2023-04-24T00:58:32.949Z,4.50
2023-04-24T01:01:20.641Z,3.50
2023-04-24T01:04:06.122Z,4.03
2023-04-24T01:06:53.389Z,3.13
2023-04-24T01:09:41.188Z,6.32
2023-04-24T01:12:26.676Z,4.88
2023-04-24T01:15:12.140Z,3.75
2023-04-24T01:17:56.998Z,4.97
2023-04-24T01:20:43.910Z,5.63
2023-04-24T01:23:29.030Z,4.97
2023-04-24T01:26:16.455Z,5.50
2023-04-24T01:29:01.781Z,3.70
2023-04-24T01:31:47.226Z,2.85
2023-04-24T01:34:32.384Z,3.17
2023-04-24T01:37:17.483Z,3.70
2023-04-24T01:40:02.441Z,7.00
2023-04-24T01:42:48.381Z,4.68
2023-04-24T01:45:33.452Z,3.35
2023-04-24T01:48:18.996Z,5.30
2023-04-24T01:51:04.325Z,5.45
2023-04-24T01:53:49.666Z,6.47
2023-04-24T01:56:35.312Z,7.80
2023-04-24T01:59:21.845Z,6.17
2023-04-24T02:02:07.009Z,4.70
2023-04-24T02:04:51.998Z,5.90
2023-04-24T02:07:37.524Z,5.10
2023-04-24T02:10:22.790Z,4.00
2023-04-24T02:13:07.531Z,6.43
2023-04-24T02:15:53.030Z,5.63
2023-04-24T02:18:38.385Z,5.17
2023-04-24T02:21:23.853Z,5.93
2023-04-24T02:24:09.278Z,3.30
2023-04-24T02:26:54.008Z,5.13
2023-04-24T02:29:38.985Z,4.43
2023-04-24T02:32:23.971Z,4.33
2023-04-24T02:35:09.558Z,5.77
2023-04-24T02:37:54.859Z,4.80
2023-04-24T02:40:39.824Z,6.10
2023-04-24T02:43:25.294Z,6.70
2023-04-24T02:46:10.685Z,2.60
2023-04-24T02:48:56.136Z,5.40
2023-04-24T02:51:40.962Z,4.73
2023-04-24T02:54:26.133Z,3.80
2023-04-24T02:57:11.468Z,3.43
2023-04-24T02:59:56.843Z,4.10
2023-04-24T03:02:41.785Z,4.47
2023-04-24T03:05:27.116Z,4.27
2023-04-24T03:08:12.478Z,6.43
2023-04-24T03:10:57.658Z,4.63
2023-04-24T03:13:43.143Z,4.63
2023-04-24T03:16:28.107Z,2.40
2023-04-24T03:19:13.443Z,3.63
2023-04-24T03:21:58.366Z,2.77
2023-04-24T03:24:43.525Z,4.13
2023-04-24T03:27:28.880Z,5.87
2023-04-24T03:30:14.300Z,4.35
2023-04-24T03:32:59.558Z,3.90
2023-04-24T03:35:44.962Z,4.13
2023-04-24T03:38:29.905Z,5.23
2023-04-24T03:41:14.799Z,5.13
2023-04-24T03:44:00.184Z,5.33
2023-04-24T03:46:45.580Z,7.00
2023-04-24T03:49:30.755Z,5.43
2023-04-24T03:52:16.101Z,8.70
2023-04-24T03:55:01.687Z,7.40
2023-04-24T03:57:46.653Z,7.30
2023-04-24T04:00:31.499Z,7.43
2023-04-24T04:03:17.033Z,8.37
2023-04-24T04:06:02.905Z,9.60
2023-04-24T04:08:48.021Z,8.90
2023-04-24T04:11:32.865Z,8.27
2023-04-24T04:14:18.443Z,11.57
2023-04-24T04:17:03.889Z,9.03
2023-04-24T04:19:49.387Z,10.13
2023-04-24T04:22:34.741Z,11.80
2023-04-24T04:25:20.226Z,10.67
2023-04-24T04:28:05.678Z,12.80
2023-04-24T04:30:51.404Z,11.10
2023-04-24T04:33:36.360Z,12.20
2023-04-24T04:36:21.491Z,14.63
2023-04-24T04:39:07.276Z,14.93
2023-04-24T04:41:52.423Z,15.53
2023-04-24T04:44:37.934Z,17.93
2023-04-24T04:47:23.569Z,19.00
2023-04-24T04:50:09.090Z,19.53
2023-04-24T04:52:54.425Z,19.17
2023-04-24T04:55:40.102Z,20.07
2023-04-24T04:58:25.211Z,19.10
2023-04-24T05:01:10.783Z,21.07
2023-04-24T05:03:56.278Z,21.53
2023-04-24T05:06:41.879Z,21.57
2023-04-24T05:09:27.165Z,19.73
2023-04-24T05:12:12.686Z,20.30
2023-04-24T05:14:58.373Z,24.67
2023-04-24T05:17:45.706Z,22.57
2023-04-24T05:20:31.008Z,21.90
2023-04-24T05:23:16.681Z,22.80
2023-04-24T05:26:02.058Z,23.60
2023-04-24T05:28:48.146Z,23.43
2023-04-24T05:31:33.404Z,22.20
2023-04-24T05:34:18.434Z,25.30
2023-04-24T05:37:03.698Z,25.80
2023-04-24T05:39:49.151Z,25.97
2023-04-24T05:42:34.696Z,25.97
2023-04-24T05:45:19.962Z,24.50
2023-04-24T05:48:05.344Z,26.87
2023-04-24T05:50:50.732Z,25.60
2023-04-24T05:53:35.738Z,26.30
2023-04-24T05:56:21.448Z,25.60
2023-04-24T05:59:06.824Z,25.90
2023-04-24T06:01:52.364Z,26.10
2023-04-24T06:04:37.812Z,25.63
2023-04-24T06:07:23.718Z,23.87
2023-04-24T06:10:09.873Z,25.03
2023-04-24T06:12:54.944Z,26.63
2023-04-24T06:15:39.996Z,24.83
2023-04-24T06:18:25.198Z,26.00
2023-04-24T06:21:10.354Z,25.80
2023-04-24T06:23:55.696Z,26.33
2023-04-24T06:26:40.646Z,24.37
2023-04-24T06:29:26.025Z,25.53
2023-04-24T06:32:10.853Z,26.37
2023-04-24T06:34:56.782Z,27.67
2023-04-24T06:37:43.212Z,27.93
2023-04-24T06:40:28.303Z,27.50
2023-04-24T06:43:13.617Z,27.33
2023-04-24T06:46:00.927Z,27.87
2023-04-24T06:48:45.800Z,27.77
2023-04-24T06:51:31.030Z,25.93
2023-04-24T06:54:15.877Z,24.43
2023-04-24T06:57:01.381Z,23.90
2023-04-24T06:59:46.710Z,24.30
2023-04-24T07:02:32.200Z,23.07
2023-04-24T07:05:17.476Z,21.27
2023-04-24T07:08:02.591Z,22.97
2023-04-24T07:10:47.898Z,21.00
2023-04-24T07:13:33.297Z,21.13
2023-04-24T07:16:18.778Z,18.97
2023-04-24T07:19:04.131Z,21.03
2023-04-24T07:21:49.495Z,20.77
2023-04-24T07:24:34.837Z,17.97
2023-04-24T07:27:19.964Z,20.23
2023-04-24T07:30:05.558Z,20.60
2023-04-24T07:32:50.774Z,18.20
2023-04-24T07:35:36.226Z,16.93
2023-04-24T07:38:21.773Z,18.10
2023-04-24T07:41:06.886Z,18.57
2023-04-24T07:43:52.395Z,17.73
2023-04-24T07:46:37.794Z,15.57
2023-04-24T07:49:23.150Z,17.70
2023-04-24T07:52:08.307Z,15.53
2023-04-24T07:54:55.753Z,16.27
2023-04-24T07:57:40.632Z,15.80
2023-04-24T08:00:25.758Z,14.93
2023-04-24T08:03:10.957Z,15.93
2023-04-24T08:05:56.209Z,14.33
2023-04-24T08:08:41.671Z,13.67
2023-04-24T08:11:27.492Z,14.53
2023-04-24T08:14:12.856Z,15.20
2023-04-24T08:16:58.704Z,14.20
2023-04-24T08:19:44.717Z,13.07
2023-04-24T08:22:30.148Z,12.30
2023-04-24T08:25:15.174Z,12.37
2023-04-24T08:28:00.254Z,10.43
2023-04-24T08:30:45.566Z,10.93
2023-04-24T08:33:30.936Z,11.87
2023-04-24T08:36:15.910Z,9.90
2023-04-24T08:39:00.740Z,12.47
2023-04-24T08:41:49.988Z,11.10
2023-04-24T08:44:38.331Z,10.30
2023-04-24T08:47:23.955Z,11.90
2023-04-24T08:50:12.854Z,11.10
2023-04-24T08:53:05.094Z,12.07
2023-04-24T08:55:54.737Z,10.93
2023-04-24T08:58:43.485Z,8.30
2023-04-24T09:01:28.976Z,10.60
2023-04-24T09:04:15.927Z,8.73
2023-04-24T09:07:02.207Z,10.23
2023-04-24T09:09:48.981Z,9.90
2023-04-24T09:12:35.478Z,8.60
2023-04-24T09:15:20.953Z,9.03
2023-04-24T09:18:06.361Z,7.00
2023-04-24T09:21:07.667Z,6.50
2023-04-24T09:24:04.876Z,6.03
2023-04-24T09:26:57.813Z,8.30
2023-04-24T09:33:16.931Z,5.50
2023-04-24T09:36:02.418Z,5.20
2023-04-24T09:38:48.034Z,6.57
2023-04-24T09:41:33.969Z,5.00
2023-04-24T09:44:20.869Z,5.83
2023-04-24T09:47:10.514Z,5.30
2023-04-24T09:49:59.049Z,6.47
2023-04-24T09:52:46.256Z,7.20
2023-04-24T09:55:32.028Z,5.03
2023-04-24T09:58:17.315Z,7.60
2023-04-24T10:01:03.106Z,5.00
2023-04-24T10:03:48.574Z,5.50
2023-04-24T10:06:35.432Z,3.20
2023-04-24T10:09:22.990Z,4.77
2023-04-24T10:12:08.270Z,5.30
2023-04-24T10:14:54.060Z,5.00
2023-04-24T10:17:40.170Z,6.30
2023-04-24T10:20:29.745Z,7.17
2023-04-24T10:23:15.154Z,9.73
2023-04-24T10:26:01.440Z,12.23
2023-04-24T10:28:47.772Z,12.97
2023-04-24T10:31:33.333Z,11.13
2023-04-24T10:34:21.126Z,13.87
2023-04-24T10:37:06.447Z,10.33
2023-04-24T10:39:51.812Z,10.07
2023-04-24T10:42:41.401Z,10.73
2023-04-24T10:45:26.983Z,11.83
2023-04-24T10:48:12.001Z,9.90
2023-04-24T10:50:57.401Z,7.73
2023-04-24T10:53:43.033Z,9.80
2023-04-24T10:56:28.251Z,7.27
2023-04-24T10:59:25.293Z,9.40
2023-04-24T11:02:11.330Z,9.30
2023-04-24T11:04:56.894Z,10.70
2023-04-24T11:08:14.630Z,12.17
2023-04-24T11:11:01.357Z,11.43
2023-04-24T11:13:55.548Z,13.87
2023-04-24T11:16:55.004Z,13.90
2023-04-24T11:19:40.410Z,15.00
2023-04-24T11:22:26.528Z,15.47
2023-04-24T11:25:11.522Z,14.20
2023-04-24T11:28:06.778Z,12.70
2023-04-24T11:30:51.820Z,15.77
2023-04-24T11:33:37.353Z,13.80
2023-04-24T11:36:22.947Z,15.30
2023-04-24T11:39:08.190Z,14.47
2023-04-24T11:41:53.077Z,13.67
2023-04-24T11:44:38.803Z,16.43
2023-04-24T11:47:32.120Z,13.47
2023-04-24T11:50:19.585Z,15.50
2023-04-24T11:53:05.053Z,14.77
2023-04-24T11:55:50.120Z,12.63
2023-04-24T11:58:39.639Z,12.40
2023-04-24T12:01:24.932Z,11.03
2023-04-24T12:04:10.585Z,9.60
2023-04-24T12:07:05.370Z,9.50
2023-04-24T12:09:59.304Z,10.57
2023-04-24T12:12:46.316Z,11.83
2023-04-24T12:15:32.323Z,11.50
2023-04-24T12:18:17.635Z,12.60
2023-04-24T12:21:22.698Z,12.53
2023-04-24T12:24:08.313Z,13.93
2023-04-24T12:26:53.617Z,13.70
2023-04-24T12:29:52.454Z,14.83
2023-04-24T12:32:42.458Z,16.57
2023-04-24T12:35:32.635Z,15.90
2023-04-24T12:38:23.382Z,15.30
2023-04-24T12:41:11.037Z,16.37
2023-04-24T12:43:56.257Z,17.73
2023-04-24T12:46:41.570Z,19.23
2023-04-24T12:49:27.458Z,17.27
2023-04-24T12:52:12.695Z,19.73
2023-04-24T12:54:59.910Z,16.90
2023-04-24T12:57:45.065Z,21.80
2023-04-24T13:00:30.681Z,21.60
2023-04-24T13:03:16.219Z,22.80
2023-04-24T13:06:01.418Z,24.40
2023-04-24T13:08:46.530Z,22.93
2023-04-24T13:11:31.869Z,25.13
2023-04-24T13:14:17.278Z,22.03
2023-04-24T13:17:02.664Z,29.93
2023-04-24T13:19:50.806Z,28.77
2023-04-24T13:22:36.992Z,27.43
2023-04-24T13:25:21.869Z,24.87
2023-04-24T13:28:07.155Z,28.57
2023-04-24T13:30:52.552Z,29.30
2023-04-24T13:33:38.068Z,28.30
2023-04-24T13:36:23.114Z,30.80
2023-04-24T13:39:08.472Z,30.23
2023-04-24T13:41:57.917Z,31.10
2023-04-24T13:44:42.795Z,34.00
2023-04-24T13:47:28.351Z,30.30
2023-04-24T13:50:13.692Z,27.43
2023-04-24T13:53:00.303Z,34.80
2023-04-24T13:55:46.648Z,28.53
2023-04-24T13:58:31.818Z,26.53
2023-04-24T14:01:17.131Z,26.23
2023-04-24T14:04:02.566Z,29.43
2023-04-24T14:06:47.835Z,26.93
2023-04-24T14:09:33.249Z,25.77
2023-04-24T14:12:18.714Z,26.17
2023-04-24T14:15:04.947Z,25.57
2023-04-24T14:17:50.076Z,28.10
2023-04-24T14:20:35.484Z,23.43
2023-04-24T14:23:21.064Z,22.93
2023-04-24T14:26:06.458Z,23.60
2023-04-24T14:28:55.796Z,22.17
2023-04-24T14:31:43.700Z,22.87
2023-04-24T14:34:28.605Z,21.77
2023-04-24T14:37:14.726Z,19.10
2023-04-24T14:40:11.741Z,19.47
2023-04-24T14:43:05.441Z,19.20
2023-04-24T14:45:50.987Z,19.57
2023-04-24T14:48:36.814Z,21.10
2023-04-24T14:51:23.417Z,17.40
2023-04-24T14:54:08.507Z,13.67
2023-04-24T14:56:55.431Z,17.13
2023-04-24T14:59:40.828Z,13.60
2023-04-24T15:02:26.816Z,16.37
2023-04-24T15:05:12.644Z,14.57
2023-04-24T15:07:58.390Z,14.87
2023-04-24T15:10:43.702Z,15.20
2023-04-24T15:13:30.591Z,12.33
2023-04-24T15:16:17.955Z,13.43
2023-04-24T15:19:03.443Z,14.10
2023-04-24T15:21:49.488Z,14.17
2023-04-24T15:24:34.445Z,12.03
2023-04-24T15:27:20.322Z,11.47
2023-04-24T15:30:06.356Z,11.63
2023-04-24T15:32:51.626Z,11.63
2023-04-24T15:35:36.936Z,13.40
2023-04-24T15:38:22.470Z,14.43
2023-04-24T15:41:07.622Z,15.33
2023-04-24T15:43:52.602Z,14.00
2023-04-24T15:46:38.070Z,13.80
2023-04-24T15:49:23.521Z,15.73
2023-04-24T15:52:09.136Z,13.10
2023-04-24T15:54:55.021Z,11.80
2023-04-24T15:57:40.589Z,13.53
2023-04-24T16:00:25.864Z,11.17
2023-04-24T16:03:11.222Z,11.53
2023-04-24T16:05:56.741Z,12.00
2023-04-24T16:08:42.200Z,12.43
2023-04-24T16:11:27.496Z,11.77
2023-04-24T16:14:12.903Z,14.03
2023-04-24T16:16:57.789Z,12.67
2023-04-24T16:19:43.192Z,11.67
2023-04-24T16:22:28.544Z,15.70
2023-04-24T16:25:13.989Z,12.57
2023-04-24T16:27:59.691Z,15.40
2023-04-24T16:30:44.398Z,16.03
2023-04-24T16:33:29.454Z,14.67
2023-04-24T16:36:15.488Z,11.30
2023-04-24T16:39:00.793Z,13.67
2023-04-24T16:41:46.026Z,15.23
2023-04-24T16:44:31.400Z,10.80
2023-04-24T16:47:16.436Z,15.57
2023-04-24T16:50:01.847Z,14.50
2023-04-24T16:52:46.978Z,12.10
2023-04-24T16:55:31.959Z,12.93
2023-04-24T16:58:16.846Z,9.33
2023-04-24T17:01:01.786Z,12.33
2023-04-24T17:03:47.255Z,11.87
2023-04-24T17:06:32.585Z,13.27
2023-04-24T17:09:17.856Z,13.50
2023-04-24T17:12:02.592Z,11.67
2023-04-24T17:14:47.371Z,13.07
2023-04-24T17:17:32.295Z,12.47
2023-04-24T17:20:22.797Z,15.90
2023-04-24T17:23:09.041Z,12.50
2023-04-24T17:25:54.650Z,16.03
2023-04-24T17:28:39.998Z,16.13
2023-04-24T17:31:25.190Z,13.10
2023-04-24T17:34:10.221Z,16.07
2023-04-24T17:36:55.207Z,16.63
2023-04-24T17:39:40.533Z,11.67
2023-04-24T17:42:25.456Z,16.20
2023-04-24T17:45:11.327Z,17.53
2023-04-24T17:47:56.719Z,14.60
2023-04-24T17:50:42.481Z,11.80
2023-04-24T17:53:27.449Z,14.57
2023-04-24T17:56:12.423Z,14.17
2023-04-24T17:58:57.601Z,14.50
2023-04-24T18:01:42.636Z,17.53
2023-04-24T18:04:27.898Z,14.30
2023-04-24T18:07:13.019Z,13.37
2023-04-24T18:09:58.037Z,15.60
2023-04-24T18:12:43.432Z,14.50
2023-04-24T18:15:28.923Z,17.27
2023-04-24T18:18:14.382Z,16.50
2023-04-24T18:20:59.793Z,15.27
2023-04-24T18:23:45.247Z,17.57
2023-04-24T18:26:30.362Z,16.03
2023-04-24T18:29:15.673Z,14.50
2023-04-24T18:32:01.146Z,20.33
2023-04-24T18:34:46.179Z,16.93
2023-04-24T18:37:31.355Z,16.97
2023-04-24T18:40:16.899Z,15.73
2023-04-24T18:43:02.446Z,13.57
2023-04-24T18:45:47.706Z,14.50
2023-04-24T18:48:32.627Z,14.77
2023-04-24T18:51:17.565Z,16.80
2023-04-24T18:54:02.559Z,17.00
2023-04-24T18:56:51.123Z,17.00
2023-04-24T18:59:36.586Z,14.43
2023-04-24T19:02:21.925Z,16.47
2023-04-24T19:05:07.800Z,20.27
2023-04-24T19:07:52.915Z,17.30
2023-04-24T19:10:38.315Z,15.70
2023-04-24T19:13:23.767Z,17.23
2023-04-24T19:16:09.467Z,17.33
2023-04-24T19:18:54.530Z,17.77
2023-04-24T19:21:39.709Z,16.27
2023-04-24T19:24:25.092Z,18.13
2023-04-24T19:27:09.956Z,17.47
2023-04-24T19:29:54.910Z,19.13
2023-04-24T19:32:40.179Z,19.53
2023-04-24T19:35:25.479Z,20.93
2023-04-24T19:38:10.930Z,19.03
2023-04-24T19:40:56.334Z,20.30
2023-04-24T19:43:41.419Z,17.33
2023-04-24T19:46:26.508Z,16.30
2023-04-24T19:49:11.592Z,19.60
2023-04-24T19:51:56.653Z,17.13
2023-04-24T19:54:41.999Z,21.80
2023-04-24T19:57:26.897Z,18.30
2023-04-24T20:00:12.607Z,19.40
2023-04-24T20:02:57.790Z,23.07
2023-04-24T20:05:43.232Z,19.77
2023-04-24T20:08:28.504Z,17.13
2023-04-24T20:11:14.402Z,18.73
2023-04-24T20:13:59.780Z,21.87
2023-04-24T20:16:45.331Z,20.53
2023-04-24T20:19:30.638Z,21.60
2023-04-24T20:22:16.365Z,19.70
2023-04-24T20:25:02.564Z,19.63
2023-04-24T20:27:47.847Z,21.47
2023-04-24T20:30:33.090Z,17.60
2023-04-24T20:33:18.294Z,20.50
2023-04-24T20:36:03.761Z,19.13
2023-04-24T20:38:48.989Z,17.57
2023-04-24T20:41:34.359Z,17.00
2023-04-24T20:44:19.573Z,20.93
2023-04-24T20:47:05.835Z,17.90
2023-04-24T20:49:51.012Z,22.53
2023-04-24T20:52:36.453Z,21.17
2023-04-24T20:55:21.451Z,21.63
2023-04-24T20:58:06.870Z,19.00
2023-04-24T21:00:52.085Z,18.83
2023-04-24T21:03:37.797Z,22.70
2023-04-24T21:06:23.122Z,26.57
2023-04-24T21:09:08.516Z,19.30
2023-04-24T21:11:53.726Z,22.07
2023-04-24T21:14:38.982Z,25.53
2023-04-24T21:17:24.387Z,21.30
2023-04-24T21:20:09.913Z,22.10
2023-04-24T21:22:55.768Z,21.73
2023-04-24T21:25:40.913Z,27.20
2023-04-24T21:28:26.041Z,21.13
2023-04-24T21:31:11.439Z,26.43
2023-04-24T21:33:56.494Z,23.10
2023-04-24T21:36:41.510Z,26.53
2023-04-24T21:39:26.442Z,22.87
2023-04-24T21:42:11.518Z,24.50
2023-04-24T21:44:56.992Z,21.73
2023-04-24T21:47:42.184Z,25.53
2023-04-24T21:50:27.690Z,24.67
2023-04-24T21:53:13.080Z,23.63
2023-04-24T21:55:58.252Z,27.80
2023-04-24T21:58:43.337Z,28.63
2023-04-24T22:01:28.555Z,29.37
2023-04-24T22:04:13.814Z,22.30
2023-04-24T22:06:59.161Z,22.50
2023-04-24T22:09:44.330Z,24.20
2023-04-24T22:12:29.570Z,23.47
2023-04-24T22:15:14.904Z,25.03
2023-04-24T22:18:00.482Z,25.80
2023-04-24T22:20:46.022Z,28.40
2023-04-24T22:23:31.267Z,28.70
2023-04-24T22:26:16.448Z,23.97
2023-04-24T22:29:01.988Z,31.70
2023-04-24T22:31:47.411Z,20.70
2023-04-24T22:34:33.111Z,24.70
2023-04-24T22:37:18.443Z,25.57
2023-04-24T22:40:04.203Z,30.73
2023-04-24T22:42:49.559Z,26.30
2023-04-24T22:45:34.770Z,25.50
2023-04-24T22:48:20.225Z,30.93
2023-04-24T22:51:05.180Z,24.27
2023-04-24T22:53:50.297Z,26.00
2023-04-24T22:56:36.281Z,23.20
2023-04-24T22:59:21.574Z,28.13
2023-04-24T23:02:06.651Z,28.43
2023-04-24T23:04:51.538Z,26.17
2023-04-24T23:07:38.430Z,27.17
2023-04-24T23:10:24.025Z,26.53
2023-04-24T23:13:09.345Z,27.37
2023-04-24T23:15:54.927Z,27.53
2023-04-24T23:18:40.201Z,24.73
2023-04-24T23:21:25.610Z,24.77
2023-04-24T23:24:10.979Z,28.90
2023-04-24T23:26:55.891Z,30.83
2023-04-24T23:29:40.886Z,22.93
2023-04-24T23:32:25.975Z,26.30
2023-04-24T23:35:10.973Z,24.97
2023-04-24T23:37:56.293Z,24.83
2023-04-24T23:40:41.584Z,23.13
2023-04-24T23:43:26.665Z,25.97
2023-04-24T23:46:12.348Z,30.90
2023-04-24T23:48:57.673Z,29.20
2023-04-24T23:51:43.353Z,28.13
2023-04-24T23:54:28.180Z,25.17
2023-04-24T23:57:13.188Z,26.27
2023-04-24T23:59:58.497Z,25.63
